sensor_id;sensor_type;location;lat;lon;timestamp;P1;durP1;ratioP1;P2;durP2;ratioP2
76447;SDS011;65284;51.040;13.722;2024-01-30T00:00:32;32.50;;;13.73;;
76447;SDS011;65284;51.040;13.722;2024-01-30T00:02:59;29.70;;;13.23;;
76447;SDS011;65284;51.040;13.722;2024-01-30T00:05:25;37.92;;;14.25;;
76447;SDS011;65284;51.040;13.722;2024-01-30T00:07:52;34.72;;;13.57;;
76447;SDS011;65284;51.040;13.722;2024-01-30T00:10:18;33.22;;;14.40;;
76447;SDS011;65284;51.040;13.722;2024-01-30T00:12:45;33.00;;;13.88;;
76447;SDS011;65284;51.040;13.722;2024-01-30T00:15:11;31.80;;;13.65;;
76447;SDS011;65284;51.040;13.722;2024-01-30T00:17:38;35.08;;;14.07;;
76447;SDS011;65284;51.040;13.722;2024-01-30T00:20:05;33.17;;;13.10;;
76447;SDS011;65284;51.040;13.722;2024-01-30T00:22:32;31.75;;;13.07;;
76447;SDS011;65284;51.040;13.722;2024-01-30T00:24:59;31.70;;;13.40;;
76447;SDS011;65284;51.040;13.722;2024-01-30T00:27:26;34.08;;;13.77;;
76447;SDS011;65284;51.040;13.722;2024-01-30T00:29:54;30.63;;;13.18;;
76447;SDS011;65284;51.040;13.722;2024-01-30T00:32:20;34.20;;;13.80;;
76447;SDS011;65284;51.040;13.722;2024-01-30T00:34:47;35.90;;;13.63;;
76447;SDS011;65284;51.040;13.722;2024-01-30T00:37:13;34.25;;;13.30;;
76447;SDS011;65284;51.040;13.722;2024-01-30T00:39:40;32.70;;;13.65;;
76447;SDS011;65284;51.040;13.722;2024-01-30T00:42:06;30.23;;;13.48;;
76447;SDS011;65284;51.040;13.722;2024-01-30T00:44:36;33.22;;;14.07;;
76447;SDS011;65284;51.040;13.722;2024-01-30T00:47:05;27.80;;;12.77;;
76447;SDS011;65284;51.040;13.722;2024-01-30T00:49:32;33.80;;;14.40;;
76447;SDS011;65284;51.040;13.722;2024-01-30T00:51:58;30.95;;;13.48;;
76447;SDS011;65284;51.040;13.722;2024-01-30T00:54:25;31.80;;;13.45;;
76447;SDS011;65284;51.040;13.722;2024-01-30T00:56:52;32.92;;;13.57;;
76447;SDS011;65284;51.040;13.722;2024-01-30T00:59:18;30.92;;;13.10;;
76447;SDS011;65284;51.040;13.722;2024-01-30T01:01:45;36.00;;;14.48;;
76447;SDS011;65284;51.040;13.722;2024-01-30T01:04:12;33.72;;;13.13;;
76447;SDS011;65284;51.040;13.722;2024-01-30T01:06:38;31.05;;;13.05;;
76447;SDS011;65284;51.040;13.722;2024-01-30T01:09:05;34.00;;;14.10;;
76447;SDS011;65284;51.040;13.722;2024-01-30T01:11:31;32.50;;;13.45;;
76447;SDS011;65284;51.040;13.722;2024-01-30T01:13:58;29.20;;;13.00;;
76447;SDS011;65284;51.040;13.722;2024-01-30T01:16:24;31.55;;;13.52;;
76447;SDS011;65284;51.040;13.722;2024-01-30T01:18:51;29.48;;;13.20;;
76447;SDS011;65284;51.040;13.722;2024-01-30T01:21:18;29.77;;;12.25;;
76447;SDS011;65284;51.040;13.722;2024-01-30T01:23:44;30.08;;;12.85;;
76447;SDS011;65284;51.040;13.722;2024-01-30T01:26:11;31.58;;;12.77;;
76447;SDS011;65284;51.040;13.722;2024-01-30T01:28:39;31.77;;;13.13;;
76447;SDS011;65284;51.040;13.722;2024-01-30T01:31:07;29.55;;;11.85;;
76447;SDS011;65284;51.040;13.722;2024-01-30T01:33:33;30.70;;;11.95;;
76447;SDS011;65284;51.040;13.722;2024-01-30T01:36:00;29.77;;;12.43;;
76447;SDS011;65284;51.040;13.722;2024-01-30T01:38:30;30.35;;;12.57;;
76447;SDS011;65284;51.040;13.722;2024-01-30T01:40:56;29.80;;;12.63;;
76447;SDS011;65284;51.040;13.722;2024-01-30T01:43:22;26.67;;;12.02;;
76447;SDS011;65284;51.040;13.722;2024-01-30T01:45:49;28.98;;;12.32;;
76447;SDS011;65284;51.040;13.722;2024-01-30T01:48:16;29.55;;;12.25;;
76447;SDS011;65284;51.040;13.722;2024-01-30T01:50:43;30.23;;;12.45;;
76447;SDS011;65284;51.040;13.722;2024-01-30T01:53:10;29.30;;;12.57;;
76447;SDS011;65284;51.040;13.722;2024-01-30T01:55:36;31.45;;;12.25;;
76447;SDS011;65284;51.040;13.722;2024-01-30T01:58:03;28.73;;;11.48;;
76447;SDS011;65284;51.040;13.722;2024-01-30T02:00:30;28.23;;;11.35;;
76447;SDS011;65284;51.040;13.722;2024-01-30T02:02:57;27.23;;;11.30;;
76447;SDS011;65284;51.040;13.722;2024-01-30T02:05:26;29.17;;;12.07;;
76447;SDS011;65284;51.040;13.722;2024-01-30T02:07:52;25.60;;;11.35;;
76447;SDS011;65284;51.040;13.722;2024-01-30T02:10:19;27.30;;;11.65;;
76447;SDS011;65284;51.040;13.722;2024-01-30T02:12:46;26.75;;;11.75;;
76447;SDS011;65284;51.040;13.722;2024-01-30T02:15:13;28.70;;;11.73;;
76447;SDS011;65284;51.040;13.722;2024-01-30T02:17:40;31.02;;;12.52;;
76447;SDS011;65284;51.040;13.722;2024-01-30T02:20:07;29.40;;;12.20;;
76447;SDS011;65284;51.040;13.722;2024-01-30T02:22:35;29.20;;;11.90;;
76447;SDS011;65284;51.040;13.722;2024-01-30T02:25:03;26.73;;;11.50;;
76447;SDS011;65284;51.040;13.722;2024-01-30T02:27:30;28.38;;;11.90;;
76447;SDS011;65284;51.040;13.722;2024-01-30T02:29:57;29.42;;;11.88;;
76447;SDS011;65284;51.040;13.722;2024-01-30T02:32:23;29.85;;;12.23;;
76447;SDS011;65284;51.040;13.722;2024-01-30T02:34:50;26.38;;;11.15;;
76447;SDS011;65284;51.040;13.722;2024-01-30T02:37:16;28.38;;;12.25;;
76447;SDS011;65284;51.040;13.722;2024-01-30T02:39:43;29.17;;;12.02;;
76447;SDS011;65284;51.040;13.722;2024-01-30T02:42:09;28.05;;;12.23;;
76447;SDS011;65284;51.040;13.722;2024-01-30T02:44:36;29.08;;;11.45;;
76447;SDS011;65284;51.040;13.722;2024-01-30T02:47:02;28.02;;;12.05;;
76447;SDS011;65284;51.040;13.722;2024-01-30T02:49:29;28.05;;;11.77;;
76447;SDS011;65284;51.040;13.722;2024-01-30T02:51:56;28.67;;;12.07;;
76447;SDS011;65284;51.040;13.722;2024-01-30T02:54:23;28.63;;;11.63;;
76447;SDS011;65284;51.040;13.722;2024-01-30T02:56:49;27.92;;;12.00;;
76447;SDS011;65284;51.040;13.722;2024-01-30T02:59:16;27.83;;;11.57;;
76447;SDS011;65284;51.040;13.722;2024-01-30T03:01:43;32.80;;;12.70;;
76447;SDS011;65284;51.040;13.722;2024-01-30T03:04:10;27.88;;;11.93;;
76447;SDS011;65284;51.040;13.722;2024-01-30T03:06:37;32.38;;;12.65;;
76447;SDS011;65284;51.040;13.722;2024-01-30T03:09:04;26.00;;;11.50;;
76447;SDS011;65284;51.040;13.722;2024-01-30T03:11:31;29.35;;;12.23;;
76447;SDS011;65284;51.040;13.722;2024-01-30T03:13:58;30.58;;;12.80;;
76447;SDS011;65284;51.040;13.722;2024-01-30T03:16:24;30.35;;;12.13;;
76447;SDS011;65284;51.040;13.722;2024-01-30T03:18:51;28.35;;;12.40;;
76447;SDS011;65284;51.040;13.722;2024-01-30T03:21:17;31.73;;;12.38;;
76447;SDS011;65284;51.040;13.722;2024-01-30T03:23:44;28.52;;;12.02;;
76447;SDS011;65284;51.040;13.722;2024-01-30T03:26:10;29.55;;;12.10;;
76447;SDS011;65284;51.040;13.722;2024-01-30T03:28:38;29.20;;;11.88;;
76447;SDS011;65284;51.040;13.722;2024-01-30T03:31:05;29.15;;;12.30;;
76447;SDS011;65284;51.040;13.722;2024-01-30T03:33:31;33.35;;;12.80;;
76447;SDS011;65284;51.040;13.722;2024-01-30T03:36:02;32.58;;;12.55;;
76447;SDS011;65284;51.040;13.722;2024-01-30T03:38:29;31.60;;;12.43;;
76447;SDS011;65284;51.040;13.722;2024-01-30T03:40:56;27.98;;;11.95;;
76447;SDS011;65284;51.040;13.722;2024-01-30T03:43:22;30.00;;;12.27;;
76447;SDS011;65284;51.040;13.722;2024-01-30T03:45:49;29.30;;;11.77;;
76447;SDS011;65284;51.040;13.722;2024-01-30T03:48:15;29.52;;;12.13;;
76447;SDS011;65284;51.040;13.722;2024-01-30T03:50:42;33.40;;;12.30;;
76447;SDS011;65284;51.040;13.722;2024-01-30T03:53:09;30.45;;;12.88;;
76447;SDS011;65284;51.040;13.722;2024-01-30T03:55:35;30.23;;;12.25;;
76447;SDS011;65284;51.040;13.722;2024-01-30T03:58:02;30.23;;;12.05;;
76447;SDS011;65284;51.040;13.722;2024-01-30T04:00:28;30.27;;;12.07;;
76447;SDS011;65284;51.040;13.722;2024-01-30T04:02:55;32.83;;;12.43;;
76447;SDS011;65284;51.040;13.722;2024-01-30T04:05:22;28.30;;;12.57;;
76447;SDS011;65284;51.040;13.722;2024-01-30T04:07:48;29.00;;;12.00;;
76447;SDS011;65284;51.040;13.722;2024-01-30T04:10:15;28.52;;;12.43;;
76447;SDS011;65284;51.040;13.722;2024-01-30T04:12:42;28.13;;;11.88;;
76447;SDS011;65284;51.040;13.722;2024-01-30T04:15:09;29.85;;;11.82;;
76447;SDS011;65284;51.040;13.722;2024-01-30T04:17:35;29.15;;;12.15;;
76447;SDS011;65284;51.040;13.722;2024-01-30T04:20:02;29.35;;;11.77;;
76447;SDS011;65284;51.040;13.722;2024-01-30T04:22:29;30.17;;;11.93;;
76447;SDS011;65284;51.040;13.722;2024-01-30T04:24:56;29.05;;;11.82;;
76447;SDS011;65284;51.040;13.722;2024-01-30T04:27:23;31.10;;;12.52;;
76447;SDS011;65284;51.040;13.722;2024-01-30T04:29:49;33.97;;;13.20;;
76447;SDS011;65284;51.040;13.722;2024-01-30T04:32:16;32.83;;;12.82;;
76447;SDS011;65284;51.040;13.722;2024-01-30T04:34:42;31.48;;;12.90;;
76447;SDS011;65284;51.040;13.722;2024-01-30T04:37:10;33.60;;;13.25;;
76447;SDS011;65284;51.040;13.722;2024-01-30T04:39:37;30.73;;;13.02;;
76447;SDS011;65284;51.040;13.722;2024-01-30T04:42:03;33.63;;;13.30;;
76447;SDS011;65284;51.040;13.722;2024-01-30T04:44:34;32.05;;;12.80;;
76447;SDS011;65284;51.040;13.722;2024-01-30T04:47:00;29.55;;;12.68;;
76447;SDS011;65284;51.040;13.722;2024-01-30T04:49:27;32.83;;;12.50;;
76447;SDS011;65284;51.040;13.722;2024-01-30T04:51:55;32.08;;;13.18;;
76447;SDS011;65284;51.040;13.722;2024-01-30T04:54:23;30.13;;;12.43;;
76447;SDS011;65284;51.040;13.722;2024-01-30T04:56:49;30.17;;;12.10;;
76447;SDS011;65284;51.040;13.722;2024-01-30T04:59:16;31.90;;;12.70;;
76447;SDS011;65284;51.040;13.722;2024-01-30T05:01:42;32.50;;;12.82;;
76447;SDS011;65284;51.040;13.722;2024-01-30T05:04:09;29.80;;;12.70;;
76447;SDS011;65284;51.040;13.722;2024-01-30T05:06:41;32.50;;;12.52;;
76447;SDS011;65284;51.040;13.722;2024-01-30T05:09:08;30.58;;;12.60;;
76447;SDS011;65284;51.040;13.722;2024-01-30T05:11:38;26.88;;;12.25;;
76447;SDS011;65284;51.040;13.722;2024-01-30T05:14:07;29.63;;;13.10;;
76447;SDS011;65284;51.040;13.722;2024-01-30T05:16:34;33.67;;;12.70;;
76447;SDS011;65284;51.040;13.722;2024-01-30T05:19:02;34.40;;;13.25;;
76447;SDS011;65284;51.040;13.722;2024-01-30T05:21:29;31.05;;;12.63;;
76447;SDS011;65284;51.040;13.722;2024-01-30T05:23:55;32.72;;;13.38;;
76447;SDS011;65284;51.040;13.722;2024-01-30T05:26:22;34.42;;;13.98;;
76447;SDS011;65284;51.040;13.722;2024-01-30T05:28:49;34.38;;;13.23;;
76447;SDS011;65284;51.040;13.722;2024-01-30T05:31:15;33.38;;;12.93;;
76447;SDS011;65284;51.040;13.722;2024-01-30T05:33:42;29.58;;;12.75;;
76447;SDS011;65284;51.040;13.722;2024-01-30T05:36:11;32.42;;;12.50;;
76447;SDS011;65284;51.040;13.722;2024-01-30T05:38:39;32.08;;;13.05;;
76447;SDS011;65284;51.040;13.722;2024-01-30T05:41:06;30.73;;;12.18;;
76447;SDS011;65284;51.040;13.722;2024-01-30T05:43:32;30.38;;;12.85;;
76447;SDS011;65284;51.040;13.722;2024-01-30T05:45:58;33.95;;;12.77;;
76447;SDS011;65284;51.040;13.722;2024-01-30T05:48:25;32.60;;;12.63;;
76447;SDS011;65284;51.040;13.722;2024-01-30T05:50:51;30.52;;;12.27;;
76447;SDS011;65284;51.040;13.722;2024-01-30T05:53:18;28.02;;;12.02;;
76447;SDS011;65284;51.040;13.722;2024-01-30T05:55:45;31.63;;;12.88;;
76447;SDS011;65284;51.040;13.722;2024-01-30T05:58:12;32.17;;;12.73;;
76447;SDS011;65284;51.040;13.722;2024-01-30T06:00:38;31.17;;;12.73;;
76447;SDS011;65284;51.040;13.722;2024-01-30T06:03:05;31.55;;;12.77;;
76447;SDS011;65284;51.040;13.722;2024-01-30T06:05:31;33.55;;;12.93;;
76447;SDS011;65284;51.040;13.722;2024-01-30T06:07:58;30.20;;;12.18;;
76447;SDS011;65284;51.040;13.722;2024-01-30T06:10:24;33.25;;;12.88;;
76447;SDS011;65284;51.040;13.722;2024-01-30T06:12:51;34.58;;;12.63;;
76447;SDS011;65284;51.040;13.722;2024-01-30T06:15:17;31.40;;;13.00;;
76447;SDS011;65284;51.040;13.722;2024-01-30T06:17:44;30.63;;;12.57;;
76447;SDS011;65284;51.040;13.722;2024-01-30T06:20:11;29.10;;;12.52;;
76447;SDS011;65284;51.040;13.722;2024-01-30T06:22:38;29.77;;;12.40;;
76447;SDS011;65284;51.040;13.722;2024-01-30T06:25:04;30.52;;;12.63;;
76447;SDS011;65284;51.040;13.722;2024-01-30T06:27:31;31.98;;;12.75;;
76447;SDS011;65284;51.040;13.722;2024-01-30T06:29:57;31.42;;;12.85;;
76447;SDS011;65284;51.040;13.722;2024-01-30T06:32:24;32.45;;;12.27;;
76447;SDS011;65284;51.040;13.722;2024-01-30T06:34:51;27.52;;;11.90;;
76447;SDS011;65284;51.040;13.722;2024-01-30T06:37:18;30.98;;;12.80;;
76447;SDS011;65284;51.040;13.722;2024-01-30T06:39:45;38.08;;;12.80;;
76447;SDS011;65284;51.040;13.722;2024-01-30T06:42:11;29.60;;;12.05;;
76447;SDS011;65284;51.040;13.722;2024-01-30T06:44:38;30.48;;;12.05;;
76447;SDS011;65284;51.040;13.722;2024-01-30T06:47:04;30.05;;;12.30;;
76447;SDS011;65284;51.040;13.722;2024-01-30T06:49:31;29.45;;;12.23;;
76447;SDS011;65284;51.040;13.722;2024-01-30T06:51:57;28.85;;;11.80;;
76447;SDS011;65284;51.040;13.722;2024-01-30T06:54:24;30.98;;;12.55;;
76447;SDS011;65284;51.040;13.722;2024-01-30T06:56:51;30.85;;;11.73;;
76447;SDS011;65284;51.040;13.722;2024-01-30T06:59:17;29.50;;;12.18;;
76447;SDS011;65284;51.040;13.722;2024-01-30T07:01:43;31.50;;;12.98;;
76447;SDS011;65284;51.040;13.722;2024-01-30T07:04:10;29.35;;;11.93;;
76447;SDS011;65284;51.040;13.722;2024-01-30T07:06:37;28.92;;;12.45;;
76447;SDS011;65284;51.040;13.722;2024-01-30T07:09:03;31.58;;;12.18;;
76447;SDS011;65284;51.040;13.722;2024-01-30T07:11:31;30.38;;;12.35;;
76447;SDS011;65284;51.040;13.722;2024-01-30T07:13:58;27.00;;;11.75;;
76447;SDS011;65284;51.040;13.722;2024-01-30T07:16:24;30.85;;;11.88;;
76447;SDS011;65284;51.040;13.722;2024-01-30T07:18:51;29.50;;;12.30;;
76447;SDS011;65284;51.040;13.722;2024-01-30T07:21:17;29.65;;;12.57;;
76447;SDS011;65284;51.040;13.722;2024-01-30T07:23:44;30.02;;;12.15;;
76447;SDS011;65284;51.040;13.722;2024-01-30T07:26:11;30.27;;;12.20;;
76447;SDS011;65284;51.040;13.722;2024-01-30T07:28:37;33.67;;;12.77;;
76447;SDS011;65284;51.040;13.722;2024-01-30T07:31:04;29.27;;;11.90;;
76447;SDS011;65284;51.040;13.722;2024-01-30T07:33:31;29.60;;;11.88;;
76447;SDS011;65284;51.040;13.722;2024-01-30T07:35:57;26.95;;;11.27;;
76447;SDS011;65284;51.040;13.722;2024-01-30T07:38:24;28.90;;;11.10;;
76447;SDS011;65284;51.040;13.722;2024-01-30T07:40:50;29.27;;;11.48;;
76447;SDS011;65284;51.040;13.722;2024-01-30T07:43:17;26.92;;;11.23;;
76447;SDS011;65284;51.040;13.722;2024-01-30T07:45:43;27.77;;;11.38;;
76447;SDS011;65284;51.040;13.722;2024-01-30T07:48:10;27.50;;;11.60;;
76447;SDS011;65284;51.040;13.722;2024-01-30T07:50:37;28.98;;;11.65;;
76447;SDS011;65284;51.040;13.722;2024-01-30T07:53:03;28.95;;;12.05;;
76447;SDS011;65284;51.040;13.722;2024-01-30T07:55:30;26.00;;;11.35;;
76447;SDS011;65284;51.040;13.722;2024-01-30T07:57:59;28.27;;;11.82;;
76447;SDS011;65284;51.040;13.722;2024-01-30T08:00:26;29.02;;;12.20;;
76447;SDS011;65284;51.040;13.722;2024-01-30T08:02:53;29.65;;;12.13;;
76447;SDS011;65284;51.040;13.722;2024-01-30T08:07:50;28.80;;;11.48;;
76447;SDS011;65284;51.040;13.722;2024-01-30T08:10:17;27.17;;;11.50;;
76447;SDS011;65284;51.040;13.722;2024-01-30T08:15:13;23.73;;;11.10;;
76447;SDS011;65284;51.040;13.722;2024-01-30T08:17:40;28.02;;;11.02;;
76447;SDS011;65284;51.040;13.722;2024-01-30T08:20:07;27.20;;;11.10;;
76447;SDS011;65284;51.040;13.722;2024-01-30T08:22:39;28.05;;;11.20;;
76447;SDS011;65284;51.040;13.722;2024-01-30T08:25:08;25.42;;;10.82;;
76447;SDS011;65284;51.040;13.722;2024-01-30T08:27:36;26.85;;;11.63;;
76447;SDS011;65284;51.040;13.722;2024-01-30T08:30:07;27.17;;;11.38;;
76447;SDS011;65284;51.040;13.722;2024-01-30T08:32:35;28.42;;;11.32;;
76447;SDS011;65284;51.040;13.722;2024-01-30T08:35:01;27.52;;;11.25;;
76447;SDS011;65284;51.040;13.722;2024-01-30T08:37:30;26.33;;;11.27;;
76447;SDS011;65284;51.040;13.722;2024-01-30T08:39:56;25.63;;;10.63;;
76447;SDS011;65284;51.040;13.722;2024-01-30T08:42:23;24.38;;;10.63;;
76447;SDS011;65284;51.040;13.722;2024-01-30T08:44:49;25.70;;;10.57;;
76447;SDS011;65284;51.040;13.722;2024-01-30T08:47:17;21.88;;;9.85;;
76447;SDS011;65284;51.040;13.722;2024-01-30T08:49:45;24.73;;;11.00;;
76447;SDS011;65284;51.040;13.722;2024-01-30T08:52:12;27.50;;;12.15;;
76447;SDS011;65284;51.040;13.722;2024-01-30T08:54:38;24.13;;;10.45;;
76447;SDS011;65284;51.040;13.722;2024-01-30T08:57:05;26.40;;;10.85;;
76447;SDS011;65284;51.040;13.722;2024-01-30T08:59:31;23.55;;;10.10;;
76447;SDS011;65284;51.040;13.722;2024-01-30T09:01:58;24.48;;;10.10;;
76447;SDS011;65284;51.040;13.722;2024-01-30T09:04:37;24.88;;;10.63;;
76447;SDS011;65284;51.040;13.722;2024-01-30T09:07:04;21.75;;;9.93;;
76447;SDS011;65284;51.040;13.722;2024-01-30T09:09:35;22.02;;;10.55;;
76447;SDS011;65284;51.040;13.722;2024-01-30T09:12:01;22.50;;;9.98;;
76447;SDS011;65284;51.040;13.722;2024-01-30T09:14:33;23.55;;;9.95;;
76447;SDS011;65284;51.040;13.722;2024-01-30T09:16:59;22.75;;;9.98;;
76447;SDS011;65284;51.040;13.722;2024-01-30T09:19:26;23.02;;;10.15;;
76447;SDS011;65284;51.040;13.722;2024-01-30T09:21:53;22.90;;;9.98;;
76447;SDS011;65284;51.040;13.722;2024-01-30T09:24:19;23.42;;;10.00;;
76447;SDS011;65284;51.040;13.722;2024-01-30T09:26:46;22.92;;;10.25;;
76447;SDS011;65284;51.040;13.722;2024-01-30T09:29:12;21.38;;;9.55;;
76447;SDS011;65284;51.040;13.722;2024-01-30T09:31:39;24.27;;;10.15;;
76447;SDS011;65284;51.040;13.722;2024-01-30T09:34:05;24.45;;;10.13;;
76447;SDS011;65284;51.040;13.722;2024-01-30T09:36:32;20.63;;;9.90;;
76447;SDS011;65284;51.040;13.722;2024-01-30T09:38:59;23.88;;;10.38;;
76447;SDS011;65284;51.040;13.722;2024-01-30T09:41:25;23.85;;;10.52;;
76447;SDS011;65284;51.040;13.722;2024-01-30T09:43:53;22.58;;;10.38;;
76447;SDS011;65284;51.040;13.722;2024-01-30T09:46:21;22.48;;;10.18;;
76447;SDS011;65284;51.040;13.722;2024-01-30T09:48:55;21.58;;;10.57;;
76447;SDS011;65284;51.040;13.722;2024-01-30T09:51:24;22.90;;;10.15;;
76447;SDS011;65284;51.040;13.722;2024-01-30T09:53:52;22.00;;;10.15;;
76447;SDS011;65284;51.040;13.722;2024-01-30T09:56:20;21.77;;;10.18;;
76447;SDS011;65284;51.040;13.722;2024-01-30T09:58:47;26.38;;;10.02;;
76447;SDS011;65284;51.040;13.722;2024-01-30T10:01:14;24.38;;;10.50;;
76447;SDS011;65284;51.040;13.722;2024-01-30T10:03:45;23.30;;;10.45;;
76447;SDS011;65284;51.040;13.722;2024-01-30T10:06:12;22.27;;;10.43;;
76447;SDS011;65284;51.040;13.722;2024-01-30T10:08:39;23.35;;;10.70;;
76447;SDS011;65284;51.040;13.722;2024-01-30T10:11:06;21.58;;;9.98;;
76447;SDS011;65284;51.040;13.722;2024-01-30T10:13:33;20.42;;;9.70;;
76447;SDS011;65284;51.040;13.722;2024-01-30T10:16:00;21.13;;;9.98;;
76447;SDS011;65284;51.040;13.722;2024-01-30T10:18:28;19.85;;;9.30;;
76447;SDS011;65284;51.040;13.722;2024-01-30T10:20:55;23.88;;;9.88;;
76447;SDS011;65284;51.040;13.722;2024-01-30T10:23:21;21.83;;;9.60;;
76447;SDS011;65284;51.040;13.722;2024-01-30T10:25:48;21.30;;;9.60;;
76447;SDS011;65284;51.040;13.722;2024-01-30T10:28:15;18.90;;;9.18;;
76447;SDS011;65284;51.040;13.722;2024-01-30T10:30:41;20.52;;;9.25;;
76447;SDS011;65284;51.040;13.722;2024-01-30T10:33:08;21.90;;;9.32;;
76447;SDS011;65284;51.040;13.722;2024-01-30T10:35:34;18.95;;;8.70;;
76447;SDS011;65284;51.040;13.722;2024-01-30T10:38:01;22.73;;;8.63;;
76447;SDS011;65284;51.040;13.722;2024-01-30T10:40:29;19.65;;;9.18;;
76447;SDS011;65284;51.040;13.722;2024-01-30T10:42:56;22.40;;;8.70;;
76447;SDS011;65284;51.040;13.722;2024-01-30T10:45:23;20.67;;;8.88;;
76447;SDS011;65284;51.040;13.722;2024-01-30T10:47:54;24.92;;;9.35;;
76447;SDS011;65284;51.040;13.722;2024-01-30T10:50:24;22.05;;;9.40;;
76447;SDS011;65284;51.040;13.722;2024-01-30T10:52:52;20.98;;;9.05;;
76447;SDS011;65284;51.040;13.722;2024-01-30T10:55:20;21.45;;;10.00;;
76447;SDS011;65284;51.040;13.722;2024-01-30T10:57:47;20.70;;;9.38;;
76447;SDS011;65284;51.040;13.722;2024-01-30T11:06:52;19.55;;;9.23;;
76447;SDS011;65284;51.040;13.722;2024-01-30T11:09:18;21.20;;;9.27;;
76447;SDS011;65284;51.040;13.722;2024-01-30T11:11:52;21.73;;;9.93;;
76447;SDS011;65284;51.040;13.722;2024-01-30T11:14:26;21.05;;;9.40;;
76447;SDS011;65284;51.040;13.722;2024-01-30T11:16:58;21.33;;;9.73;;
76447;SDS011;65284;51.040;13.722;2024-01-30T11:19:25;23.08;;;9.63;;
76447;SDS011;65284;51.040;13.722;2024-01-30T11:21:53;20.48;;;9.27;;
76447;SDS011;65284;51.040;13.722;2024-01-30T11:24:20;19.98;;;9.75;;
76447;SDS011;65284;51.040;13.722;2024-01-30T11:26:56;20.25;;;9.55;;
76447;SDS011;65284;51.040;13.722;2024-01-30T11:29:27;22.67;;;9.73;;
76447;SDS011;65284;51.040;13.722;2024-01-30T11:31:54;21.45;;;9.68;;
76447;SDS011;65284;51.040;13.722;2024-01-30T11:34:22;21.95;;;9.35;;
76447;SDS011;65284;51.040;13.722;2024-01-30T11:36:53;20.40;;;9.35;;
76447;SDS011;65284;51.040;13.722;2024-01-30T11:41:52;22.00;;;9.27;;
76447;SDS011;65284;51.040;13.722;2024-01-30T11:44:19;21.85;;;10.00;;
76447;SDS011;65284;51.040;13.722;2024-01-30T11:46:47;23.88;;;9.88;;
76447;SDS011;65284;51.040;13.722;2024-01-30T11:49:15;21.48;;;9.18;;
76447;SDS011;65284;51.040;13.722;2024-01-30T11:51:47;22.13;;;9.50;;
76447;SDS011;65284;51.040;13.722;2024-01-30T11:54:18;21.63;;;9.23;;
76447;SDS011;65284;51.040;13.722;2024-01-30T11:56:44;22.13;;;9.60;;
76447;SDS011;65284;51.040;13.722;2024-01-30T11:59:11;20.30;;;9.18;;
76447;SDS011;65284;51.040;13.722;2024-01-30T12:01:37;21.92;;;10.60;;
76447;SDS011;65284;51.040;13.722;2024-01-30T12:04:04;22.50;;;10.07;;
76447;SDS011;65284;51.040;13.722;2024-01-30T12:06:36;22.08;;;10.35;;
76447;SDS011;65284;51.040;13.722;2024-01-30T12:09:04;24.10;;;10.23;;
76447;SDS011;65284;51.040;13.722;2024-01-30T12:11:31;21.08;;;9.57;;
76447;SDS011;65284;51.040;13.722;2024-01-30T12:13:57;23.60;;;10.35;;
76447;SDS011;65284;51.040;13.722;2024-01-30T12:16:24;24.02;;;10.23;;
76447;SDS011;65284;51.040;13.722;2024-01-30T12:18:58;22.00;;;9.63;;
76447;SDS011;65284;51.040;13.722;2024-01-30T12:21:25;23.40;;;10.05;;
76447;SDS011;65284;51.040;13.722;2024-01-30T12:23:52;23.52;;;10.15;;
76447;SDS011;65284;51.040;13.722;2024-01-30T12:26:19;23.88;;;9.85;;
76447;SDS011;65284;51.040;13.722;2024-01-30T12:28:48;23.65;;;10.25;;
76447;SDS011;65284;51.040;13.722;2024-01-30T12:31:18;22.83;;;10.10;;
76447;SDS011;65284;51.040;13.722;2024-01-30T12:33:52;22.98;;;9.82;;
76447;SDS011;65284;51.040;13.722;2024-01-30T12:36:19;22.17;;;9.68;;
76447;SDS011;65284;51.040;13.722;2024-01-30T12:38:45;24.08;;;10.30;;
76447;SDS011;65284;51.040;13.722;2024-01-30T12:41:12;23.05;;;10.13;;
76447;SDS011;65284;51.040;13.722;2024-01-30T12:43:39;23.10;;;10.52;;
76447;SDS011;65284;51.040;13.722;2024-01-30T12:46:12;24.70;;;10.75;;
76447;SDS011;65284;51.040;13.722;2024-01-30T12:48:39;22.85;;;10.35;;
76447;SDS011;65284;51.040;13.722;2024-01-30T12:51:08;22.65;;;10.35;;
76447;SDS011;65284;51.040;13.722;2024-01-30T12:53:35;24.67;;;10.68;;
76447;SDS011;65284;51.040;13.722;2024-01-30T12:56:01;24.35;;;10.98;;
76447;SDS011;65284;51.040;13.722;2024-01-30T12:58:28;23.50;;;10.38;;
76447;SDS011;65284;51.040;13.722;2024-01-30T13:00:54;23.67;;;9.98;;
76447;SDS011;65284;51.040;13.722;2024-01-30T13:03:21;23.98;;;10.57;;
76447;SDS011;65284;51.040;13.722;2024-01-30T13:05:48;23.00;;;10.35;;
76447;SDS011;65284;51.040;13.722;2024-01-30T13:08:15;24.05;;;10.20;;
76447;SDS011;65284;51.040;13.722;2024-01-30T13:10:41;23.42;;;10.00;;
76447;SDS011;65284;51.040;13.722;2024-01-30T13:13:09;27.27;;;10.75;;
76447;SDS011;65284;51.040;13.722;2024-01-30T13:15:44;24.15;;;10.88;;
76447;SDS011;65284;51.040;13.722;2024-01-30T13:18:10;24.38;;;10.50;;
76447;SDS011;65284;51.040;13.722;2024-01-30T13:20:37;24.08;;;10.52;;
76447;SDS011;65284;51.040;13.722;2024-01-30T13:23:03;22.13;;;10.18;;
76447;SDS011;65284;51.040;13.722;2024-01-30T13:25:30;25.23;;;10.45;;
76447;SDS011;65284;51.040;13.722;2024-01-30T13:27:56;23.10;;;10.85;;
76447;SDS011;65284;51.040;13.722;2024-01-30T13:30:23;24.52;;;11.68;;
76447;SDS011;65284;51.040;13.722;2024-01-30T13:32:49;28.30;;;12.55;;
76447;SDS011;65284;51.040;13.722;2024-01-30T13:35:16;24.40;;;11.18;;
76447;SDS011;65284;51.040;13.722;2024-01-30T13:37:43;25.13;;;11.27;;
76447;SDS011;65284;51.040;13.722;2024-01-30T13:40:09;27.95;;;11.77;;
76447;SDS011;65284;51.040;13.722;2024-01-30T13:42:39;26.65;;;11.73;;
76447;SDS011;65284;51.040;13.722;2024-01-30T13:45:06;23.63;;;11.25;;
76447;SDS011;65284;51.040;13.722;2024-01-30T13:47:33;24.63;;;11.98;;
76447;SDS011;65284;51.040;13.722;2024-01-30T13:49:59;26.83;;;11.50;;
76447;SDS011;65284;51.040;13.722;2024-01-30T13:52:26;33.85;;;15.05;;
76447;SDS011;65284;51.040;13.722;2024-01-30T13:55:00;34.75;;;15.48;;
76447;SDS011;65284;51.040;13.722;2024-01-30T13:57:27;28.02;;;12.27;;
76447;SDS011;65284;51.040;13.722;2024-01-30T13:59:54;24.67;;;10.82;;
76447;SDS011;65284;51.040;13.722;2024-01-30T14:02:20;25.08;;;10.68;;
76447;SDS011;65284;51.040;13.722;2024-01-30T14:04:47;24.02;;;11.02;;
76447;SDS011;65284;51.040;13.722;2024-01-30T14:07:13;26.92;;;11.18;;
76447;SDS011;65284;51.040;13.722;2024-01-30T14:09:40;22.85;;;11.10;;
76447;SDS011;65284;51.040;13.722;2024-01-30T14:12:06;24.33;;;10.25;;
76447;SDS011;65284;51.040;13.722;2024-01-30T14:14:34;28.42;;;11.68;;
76447;SDS011;65284;51.040;13.722;2024-01-30T14:17:00;24.65;;;10.95;;
76447;SDS011;65284;51.040;13.722;2024-01-30T14:19:27;24.38;;;11.40;;
76447;SDS011;65284;51.040;13.722;2024-01-30T14:21:54;26.58;;;11.65;;
76447;SDS011;65284;51.040;13.722;2024-01-30T14:24:20;26.45;;;12.02;;